Latest Weather Observations for Point Fawcett

IDD60801

Issued at 10:01 pm CST Wednesday 12 August 2020 (issued every 10 minutes, with the page automatically refreshed every 10 minutes)

About weather observations | Map of weather stations | Latest weather observations for NT | Other Formats
Station Details ID: 200731 Name: POINT FAWCETT Lat: -11.76 Lon: 130.03 Height: 6.5 m
Data from the previous 72 hours. | See also: Recent months at Point Fawcett
Date/Time
CST
Temp
°C
App
Temp
°C
Dew
Point
°C
Rel
Hum
%
Delta-T
°C
Wind Press
QNH
hPa
Press
MSL
hPa
Rain since
9am
mm
Dir  Spd
km/h
Gust
km/h
Spd
kts
Gust
kts
12/10:00pm 25.4 28.4 21.9 81 2.3 W 9 13 5 7 1013.4 - 0.0
12/09:30pm 25.4 28.4 21.9 81 2.3 W 9 13 5 7 1013.2 - 0.0
12/09:00pm 25.4 28.4 21.9 81 2.3 W 9 13 5 7 1013.2 1013.2 0.0
12/08:30pm 25.6 28.8 21.7 79 2.6 WSW 7 11 4 6 1013.0 - 0.0
12/08:00pm 26.1 29.6 22.2 79 2.6 WSW 7 13 4 7 1012.6 - 0.0
12/07:30pm 26.3 29.4 21.5 75 3.2 WSW 7 11 4 6 1012.4 - 0.0
12/07:00pm 26.7 30.0 21.5 73 3.5 WSW 6 9 3 5 1012.1 - 0.0
12/06:30pm 27.5 30.6 21.5 70 4.0 SW 7 13 4 7 1011.9 - 0.0
12/06:00pm 28.3 31.2 21.8 68 4.4 SW 9 13 5 7 1011.6 1011.6 0.0
12/05:30pm 28.8 31.2 21.6 65 4.8 SW 11 15 6 8 1011.5 - 0.0
12/05:00pm 29.0 31.3 22.0 66 4.7 SW 13 20 7 11 1011.3 - 0.0
12/04:30pm 29.6 31.4 21.8 63 5.3 SSW 15 20 8 11 1011.4 - 0.0
12/04:00pm 29.7 30.9 21.4 61 5.6 SSW 17 28 9 15 1011.4 - 0.0
12/03:30pm 30.1 32.1 21.5 60 5.8 S 13 20 7 11 1011.8 - 0.0
12/03:00pm 30.5 32.0 21.3 58 6.2 SW 15 26 8 14 1012.2 1012.2 0.0
12/02:30pm 30.8 32.5 21.6 58 6.2 SSW 15 26 8 14 1012.5 - 0.0
12/02:00pm 30.1 31.8 21.7 60 5.7 SW 15 24 8 13 1012.8 - 0.0
12/01:30pm 30.1 31.2 21.2 59 6.0 SW 17 26 9 14 1013.1 - 0.0
12/01:00pm 30.4 31.3 21.5 59 6.0 SW 19 26 10 14 1013.5 - 0.0
12/12:30pm 30.3 31.1 21.4 59 6.0 SW 19 26 10 14 1013.8 - 0.0
12/12:00pm 30.6 32.0 21.1 57 6.4 SW 15 24 8 13 1014.3 1014.3 0.0
12/11:30am 29.7 30.9 21.4 61 5.6 SW 17 24 9 13 1014.8 - 0.0
12/11:00am 28.1 31.1 22.6 72 3.7 SW 11 19 6 10 1015.4 - 0.0
12/10:30am 27.6 30.9 21.9 71 3.8 WSW 7 11 4 6 1015.6 - 0.0
12/10:00am 27.7 31.4 22.2 72 3.7 WNW 6 9 3 5 1015.6 - 0.0
12/09:30am 26.5 31.1 21.7 75 3.2 CALM 0 0 0 0 1015.5 - 0.0
12/09:00am 26.8 31.1 22.0 75 3.2 WNW 2 7 1 4 1015.2 1015.2 0.0
12/08:30am 25.3 30.9 23.5 90 1.2 CALM 0 0 0 0 1014.8 - 0.0
12/08:00am 22.4 27.0 21.7 96 0.5 CALM 0 0 0 0 1014.3 - 0.0
12/07:30am 20.1 22.4 19.4 96 0.4 SSW 6 7 3 4 1013.8 - 0.0
12/07:00am 19.6 21.6 18.8 95 0.5 SSW 6 9 3 5 1013.4 - 0.0
12/06:30am 19.5 21.3 18.7 95 0.5 SSW 7 9 4 5 1013.1 - 0.0
12/06:00am 19.6 21.5 18.6 94 0.6 SSW 6 9 3 5 1013.1 1013.1 0.0
12/05:30am 19.2 22.0 17.9 92 0.8 CALM 0 0 0 0 1012.8 - 0.0
12/05:00am 19.4 22.3 18.1 92 0.8 CALM 0 0 0 0 1012.5 - 0.0
12/04:30am 19.6 22.5 18.3 92 0.8 CALM 0 0 0 0 1012.4 - 0.0
12/04:00am 19.6 22.5 18.1 91 0.9 CALM 0 0 0 0 1012.4 - 0.0
12/03:30am 19.8 22.7 18.3 91 0.9 CALM 0 0 0 0 1012.3 - 0.0
12/03:00am 20.0 22.9 18.3 90 1.1 CALM 0 0 0 0 1012.6 1012.6 0.0
12/02:30am 20.5 23.7 18.8 90 1.1 CALM 0 0 0 0 1012.8 - 0.0
12/02:00am 20.6 23.7 18.7 89 1.2 CALM 0 0 0 0 1012.9 - 0.0
12/01:30am 20.9 22.9 18.8 88 1.3 W 6 9 3 5 1013.3 - 0.0
12/01:00am 21.4 23.0 19.1 87 1.5 WNW 9 11 5 6 1013.5 - 0.0
12/12:30am 21.8 23.5 19.4 86 1.5 WNW 9 11 5 6 1014.0 - 0.0
12/12:00am 22.2 24.2 19.9 87 1.5 NW 9 11 5 6 1014.3 1014.3 0.0
 
Date/Time
CST
Temp
°C
App
Temp
°C
Dew
Point
°C
Rel
Hum
%
Delta-T
°C
Wind Press
QNH
hPa
Press
MSL
hPa
Rain since
9am
mm
Dir  Spd
km/h
Gust
km/h
Spd
kts
Gust
kts
11/11:30pm 21.9 24.0 19.3 85 1.7 NW 7 9 4 5 1014.5 - 0.0
11/11:00pm 22.3 24.4 18.9 81 2.1 NW 6 9 3 5 1014.8 - 0.0
11/10:30pm 23.6 25.6 18.7 74 3.1 NW 6 9 3 5 1014.7 - 0.0
11/10:00pm 25.6 28.5 21.1 76 3.0 N 7 11 4 6 1014.7 - 0.0
11/09:30pm 25.7 28.1 20.9 75 3.2 N 9 13 5 7 1014.8 - 0.0
11/09:00pm 25.8 28.3 21.0 75 3.2 N 9 13 5 7 1014.6 1014.6 0.0
11/08:30pm 25.8 28.3 21.0 75 3.2 NNW 9 13 5 7 1014.3 - 0.0
11/08:00pm 26.0 28.5 21.0 74 3.3 N 9 11 5 6 1014.1 - 0.0
11/07:30pm 26.1 28.3 20.4 71 3.7 NNW 9 13 5 7 1013.8 - 0.0
11/07:00pm 26.4 28.3 19.8 67 4.3 NNW 9 11 5 6 1013.8 - 0.0
11/06:30pm 27.2 28.9 19.3 62 5.1 WNW 9 11 5 6 1013.5 - 0.0
11/06:00pm 27.9 29.9 19.9 61 5.2 WNW 9 13 5 7 1013.2 1013.2 0.0
11/05:30pm 28.4 30.8 20.9 64 5.0 W 9 13 5 7 1013.1 - 0.0
11/05:00pm 28.5 30.6 21.0 64 5.0 WNW 11 15 6 8 1013.0 - 0.0
11/04:30pm 28.8 30.9 21.0 62 5.2 W 11 15 6 8 1012.9 - 0.0
11/04:00pm 29.5 31.9 20.9 60 5.7 W 9 15 5 8 1012.8 - 0.0
11/03:30pm 29.9 31.9 20.7 57 6.1 WSW 11 17 6 9 1012.9 - 0.0
11/03:00pm 29.7 31.7 20.8 58 5.9 WSW 11 17 6 9 1012.9 1012.9 0.0
11/02:30pm 29.9 31.9 20.7 57 6.1 WSW 11 17 6 9 1013.2 - 0.0
11/02:00pm 29.5 31.0 19.8 56 6.4 W 11 15 6 8 1013.5 - 0.0
11/01:30pm 28.9 29.9 18.7 54 6.6 WNW 11 13 6 7 1013.9 - 0.0
11/01:00pm 29.3 30.3 18.7 52 6.8 WNW 11 13 6 7 1014.3 - 0.0
11/12:30pm 29.6 31.4 19.6 55 6.5 WNW 9 13 5 7 1014.6 - 0.0
11/12:00pm 29.7 31.3 20.0 56 6.4 NNW 11 15 6 8 1015.1 1015.1 0.0
11/11:30am 30.0 31.9 20.5 56 6.3 N 11 17 6 9 1015.4 - 0.0
11/11:00am 29.8 31.9 20.9 59 5.9 N 11 15 6 8 1015.7 - 0.0
11/10:30am 28.6 30.1 19.8 59 5.7 N 11 15 6 8 1015.9 - 0.0
11/10:00am 28.4 30.5 20.1 60 5.4 NE 9 13 5 7 1016.0 - 0.0
11/09:30am 27.9 30.5 20.5 64 4.9 E 7 11 4 6 1016.1 - 0.0
11/09:00am 26.9 29.2 20.7 69 4.1 E 9 13 5 7 1015.8 1015.8 0.0
11/08:30am 24.9 27.2 20.6 77 2.8 E 9 13 5 7 1015.5 - 0.0
11/08:00am 22.6 24.9 20.7 89 1.2 E 9 11 5 6 1015.1 - 0.0
11/07:30am 19.9 21.6 18.6 92 0.8 ESE 7 11 4 6 1014.7 - 0.0
11/07:00am 19.0 20.2 17.3 90 1.0 WSW 7 9 4 5 1014.2 - 0.0
11/06:30am 19.4 22.0 17.4 88 1.2 CALM 0 0 0 0 1013.9 - 0.0
11/06:00am 20.1 22.8 17.7 86 1.5 CALM 0 6 0 3 1013.5 1013.5 0.0
11/05:30am 20.6 22.0 17.4 82 2.0 NW 6 9 3 5 1013.2 - 0.0
11/05:00am 22.7 23.6 17.6 73 3.2 WNW 9 11 5 6 1012.9 - 0.0
11/04:30am 25.0 26.5 19.8 73 3.4 NW 11 15 6 8 1012.7 - 0.0
11/04:00am 25.2 26.8 20.0 73 3.4 NNW 11 15 6 8 1012.8 - 0.0
11/03:30am 25.1 26.8 20.1 74 3.2 NW 11 15 6 8 1012.8 - 0.0
11/03:00am 25.2 26.8 20.0 73 3.4 NW 11 13 6 7 1013.1 1013.1 0.0
11/02:30am 25.3 26.4 19.7 71 3.6 NW 13 15 7 8 1013.3 - 0.0
11/02:00am 25.3 26.8 19.7 71 3.6 NW 11 15 6 8 1013.5 - 0.0
11/01:30am 25.5 26.8 20.1 72 3.5 NNW 13 17 7 9 1013.7 - 0.0
11/01:00am 25.5 27.3 20.3 73 3.4 NNW 11 17 6 9 1014.0 - 0.0
11/12:30am 25.6 27.1 20.6 74 3.3 NNW 13 17 7 9 1014.1 - 0.0
11/12:00am 25.6 27.1 20.6 74 3.3 NNW 13 17 7 9 1014.2 1014.2 0.0
 
Date/Time
CST
Temp
°C
App
Temp
°C
Dew
Point
°C
Rel
Hum
%
Delta-T
°C
Wind Press
QNH
hPa
Press
MSL
hPa
Rain since
9am
mm
Dir  Spd
km/h
Gust
km/h
Spd
kts
Gust
kts
10/11:30pm 25.9 27.7 21.1 75 3.2 NNW 13 17 7 9 1014.5 - 0.0
10/11:00pm 25.9 27.6 20.9 74 3.3 NNW 13 17 7 9 1014.6 - 0.0
10/10:30pm 26.0 27.2 20.6 72 3.5 N 15 19 8 10 1014.6 - 0.0
10/10:00pm 26.1 27.2 20.4 71 3.7 N 15 20 8 11 1014.6 - 0.0
10/09:30pm 26.1 27.1 20.2 70 3.8 N 15 20 8 11 1014.3 - 0.0
10/09:00pm 25.9 27.5 20.7 73 3.4 NNW 13 19 7 10 1014.1 1014.1 0.0
10/08:30pm 25.3 28.1 21.6 80 2.5 WNW 9 9 5 5 1014.0 - 0.0
10/08:00pm 25.0 27.8 20.9 78 2.7 W 7 9 4 5 1013.8 - 0.0
10/07:30pm 25.2 27.9 20.7 76 2.9 W 7 9 4 5 1013.6 - 0.0
10/07:00pm 26.0 29.1 21.0 74 3.3 WSW 6 9 3 5 1013.2 - 0.0
10/06:30pm 26.8 29.8 21.3 72 3.7 SW 7 9 4 5 1012.9 - 0.0
10/06:00pm 27.3 30.3 21.3 69 4.0 WSW 7 11 4 6 1012.7 1012.7 0.0
10/05:30pm 27.6 30.0 20.9 67 4.4 SW 9 15 5 8 1012.4 - 0.0
10/05:00pm 28.8 30.7 20.5 61 5.5 SW 11 17 6 9 1012.1 - 0.0
10/04:30pm 29.0 30.8 20.4 59 5.7 SW 11 17 6 9 1011.8 - 0.0
10/04:00pm 29.9 31.8 21.3 60 5.8 WSW 13 17 7 9 1011.6 - 0.0
10/03:30pm 29.1 31.3 20.5 59 5.7 SSW 9 15 5 8 1011.9 - 0.0
10/03:00pm 30.1 31.8 20.9 57 6.1 SW 13 20 7 11 1012.1 1012.1 0.0
10/02:30pm 30.2 32.5 21.3 59 6.0 WSW 11 15 6 8 1012.3 - 0.0
10/02:00pm 30.4 32.6 21.2 58 6.2 WSW 11 17 6 9 1012.5 - 0.0
10/01:30pm 30.7 31.9 20.6 54 6.7 NNW 15 19 8 10 1012.7 - 0.0
10/01:00pm 31.8 33.2 21.0 52 7.2 N 15 20 8 11 1013.0 - 0.0
10/12:30pm 31.0 31.9 20.0 52 7.3 NNE 15 22 8 12 1013.4 - 0.0
10/12:00pm 31.7 31.5 19.3 47 8.1 NNE 19 28 10 15 1013.7 1013.7 0.0
10/11:30am 30.3 30.1 19.3 51 7.2 NNE 19 26 10 14 1014.1 - 0.0
10/11:00am 30.3 30.7 19.9 53 6.8 NE 17 28 9 15 1014.6 - 0.0
10/10:30am 29.6 30.0 19.0 53 6.9 NE 15 24 8 13 1014.6 - 0.0
10/10:00am 28.7 29.3 18.5 54 6.5 E 13 22 7 12 1014.8 - 0.0
10/09:30am 28.3 28.7 18.1 54 6.5 ENE 13 20 7 11 1014.8 - 0.0
10/09:00am 27.0 27.9 18.3 59 5.5 E 11 17 6 9 1014.8 1014.8 0.0
10/08:30am 25.7 27.2 19.8 70 3.8 E 11 15 6 8 1014.6 - 0.0
10/08:00am 23.6 25.8 19.7 79 2.5 ESE 7 11 4 6 1014.4 - 0.0
10/07:30am 21.6 23.6 19.9 90 1.1 E 9 13 5 7 1014.1 - 0.0
10/07:00am 21.1 23.7 20.4 96 0.5 E 7 11 4 6 1014.0 - 0.0
10/06:30am 20.6 22.9 19.9 96 0.4 E 7 9 4 5 1013.6 - 0.0
10/06:00am 20.0 21.7 19.3 96 0.4 E 9 11 5 6 1013.4 1013.4 0.0
10/05:30am 19.4 21.1 18.6 95 0.5 ESE 7 9 4 5 1013.3 - 0.0
10/05:00am 19.3 20.9 18.3 94 0.6 ESE 7 7 4 4 1013.2 - 0.0
10/04:30am 19.9 21.9 19.1 95 0.5 SE 7 7 4 4 1013.1 - 0.0
10/04:00am 19.8 21.7 18.5 92 0.8 SE 6 7 3 4 1013.0 - 0.0
10/03:30am 20.3 22.2 19.0 92 0.8 SE 7 9 4 5 1013.0 - 0.0
10/03:00am 20.6 22.6 19.1 91 0.9 SE 7 7 4 4 1012.9 1012.9 0.0
10/02:30am 20.9 22.9 19.2 90 1.1 SE 7 7 4 4 1013.1 - 0.0
10/02:00am 21.2 23.3 18.9 87 1.4 ESE 6 7 3 4 1013.3 - 0.0
10/01:30am 22.0 24.2 19.2 84 1.8 ESE 6 7 3 4 1013.3 - 0.0
10/01:00am 24.1 27.3 20.4 80 2.4 NNE 4 7 2 4 1013.3 - 0.0
10/12:30am 25.3 28.5 21.6 80 2.5 N 7 13 4 7 1013.5 - 0.0
10/12:00am 25.5 28.0 21.8 80 2.5 N 11 17 6 9 1013.5 1013.5 0.0
 
Date/Time
CST
Temp
°C
App
Temp
°C
Dew
Point
°C
Rel
Hum
%
Delta-T
°C
Wind Press
QNH
hPa
Press
MSL
hPa
Rain since
9am
mm
Dir  Spd
km/h
Gust
km/h
Spd
kts
Gust
kts
09/11:30pm 25.6 27.8 21.9 80 2.5 N 13 19 7 10 1013.6 - 0.0
09/11:00pm 25.8 28.5 22.9 84 2.0 NNW 13 17 7 9 1013.7 - 0.0
09/10:30pm 25.7 28.4 22.8 84 2.0 NNW 13 19 7 10 1013.6 - 0.0

Other formats

Comma delimited format used in spreadsheet applications
http://www.bom.gov.au/fwo/IDD60801/IDD60801.94122.axf

JavaScript Object Notation format (JSON) in row-major order
http://www.bom.gov.au/fwo/IDD60801/IDD60801.94122.json

Data quality

Most of these data are generated automatically and are frequently updated. Quality checks on data are not normally performed. It is possible for incorrect values to appear. Refer to information at About Latest Weather Observations and please check the disclaimer before using these data.